createdAt,value
2023-04-15T00:00:57.430Z,43.69
2023-04-15T00:03:26.416Z,43.84
2023-04-15T00:05:53.852Z,43.89
2023-04-15T00:08:21.077Z,43.82
2023-04-15T00:10:48.408Z,44.10
2023-04-15T00:13:15.550Z,44.35
2023-04-15T00:15:42.683Z,44.30
2023-04-15T00:18:09.831Z,44.24
2023-04-15T00:20:38.413Z,44.27
2023-04-15T00:23:05.591Z,44.47
2023-04-15T00:25:32.748Z,44.11
2023-04-15T00:27:59.839Z,44.21
2023-04-15T00:30:27.278Z,44.69
2023-04-15T00:32:54.482Z,44.40
2023-04-15T00:35:21.610Z,44.07
2023-04-15T00:37:50.236Z,44.03
2023-04-15T00:40:21.089Z,44.22
2023-04-15T00:42:48.276Z,44.24
2023-04-15T00:45:15.482Z,44.11
2023-04-15T00:47:44.260Z,44.70
2023-04-15T00:50:12.489Z,44.50
2023-04-15T00:52:40.207Z,44.84
2023-04-15T00:55:10.495Z,45.06
2023-04-15T00:57:39.340Z,45.00
2023-04-15T01:00:07.692Z,44.52
2023-04-15T01:02:35.331Z,44.88
2023-04-15T01:05:03.866Z,45.01
2023-04-15T01:07:31.106Z,45.02
2023-04-15T01:09:58.728Z,44.86
2023-04-15T01:12:29.558Z,44.55
2023-04-15T01:14:57.373Z,44.19
2023-04-15T01:17:25.221Z,44.78
2023-04-15T01:19:53.718Z,44.74
2023-04-15T01:22:21.006Z,44.79
2023-04-15T01:24:55.885Z,44.62
2023-04-15T01:27:25.346Z,44.99
2023-04-15T01:29:52.566Z,44.96
2023-04-15T01:32:19.809Z,44.84
2023-04-15T01:34:46.909Z,44.66
2023-04-15T01:37:14.298Z,44.72
2023-04-15T01:39:41.425Z,51.08
2023-04-15T01:42:08.544Z,46.95
2023-04-15T01:44:37.212Z,47.81
2023-04-15T01:47:04.407Z,46.60
2023-04-15T01:49:31.766Z,46.42
2023-04-15T01:51:59.151Z,47.26
2023-04-15T01:54:26.298Z,45.17
2023-04-15T01:56:53.614Z,44.62
2023-04-15T01:59:20.711Z,44.41
2023-04-15T02:01:49.524Z,42.76
2023-04-15T02:04:16.769Z,42.51
2023-04-15T02:06:43.857Z,42.69
2023-04-15T02:09:11.132Z,42.22
2023-04-15T02:11:38.271Z,42.45
2023-04-15T02:14:05.432Z,41.22
2023-04-15T02:16:33.740Z,41.59
2023-04-15T02:19:02.561Z,41.71
2023-04-15T02:21:29.914Z,41.52
2023-04-15T02:23:57.170Z,40.83
2023-04-15T02:26:24.454Z,41.68
2023-04-15T02:28:51.569Z,40.91
2023-04-15T02:31:18.657Z,41.18
2023-04-15T02:33:46.013Z,40.93
2023-04-15T02:36:14.655Z,40.61
2023-04-15T02:38:41.860Z,40.95
2023-04-15T02:41:09.832Z,41.47
2023-04-15T02:43:36.957Z,41.17
2023-04-15T02:46:04.166Z,40.57
2023-04-15T02:48:31.595Z,41.07
2023-04-15T02:51:12.542Z,41.43
2023-04-15T02:53:41.412Z,41.06
2023-04-15T02:56:08.968Z,40.78
2023-04-15T02:58:36.566Z,40.47
2023-04-15T03:01:03.933Z,40.97
2023-04-15T03:06:53.211Z,40.49
2023-04-15T03:09:21.873Z,40.95
2023-04-15T03:11:49.029Z,41.06
2023-04-15T03:14:16.168Z,41.24
2023-04-15T03:16:43.449Z,41.08
2023-04-15T03:19:10.528Z,41.35
2023-04-15T03:21:37.974Z,40.38
2023-04-15T03:24:05.469Z,40.63
2023-04-15T03:26:34.072Z,40.42
2023-04-15T03:29:01.484Z,40.66
2023-04-15T03:31:28.953Z,40.63
2023-04-15T03:33:56.299Z,40.95
2023-04-15T03:36:23.370Z,40.96
2023-04-15T03:38:50.538Z,40.72
2023-04-15T03:41:17.891Z,40.54
2023-04-15T03:43:46.435Z,40.59
2023-04-15T03:46:13.722Z,40.43
2023-04-15T03:48:41.008Z,40.59
2023-04-15T03:51:08.264Z,40.79
2023-04-15T03:53:35.399Z,40.55
2023-04-15T03:56:02.612Z,40.13
2023-04-15T03:58:29.894Z,40.38
2023-04-15T04:00:58.432Z,40.40
2023-04-15T04:03:26.016Z,40.62
2023-04-15T04:05:53.465Z,40.63
2023-04-15T04:08:20.629Z,40.78
2023-04-15T04:10:48.113Z,40.85
2023-04-15T04:13:15.336Z,41.28
2023-04-15T04:15:42.571Z,40.53
2023-04-15T04:18:11.170Z,40.54
2023-04-15T04:20:38.672Z,40.74
2023-04-15T04:23:05.926Z,40.52
2023-04-15T04:25:33.217Z,40.62
2023-04-15T04:28:00.329Z,41.23
2023-04-15T04:30:27.520Z,40.57
2023-04-15T04:32:54.734Z,40.86
2023-04-15T04:35:23.588Z,40.82
2023-04-15T04:37:50.907Z,41.59
2023-04-15T04:40:18.212Z,41.18
2023-04-15T04:42:45.454Z,41.14
2023-04-15T04:45:12.786Z,41.37
2023-04-15T04:47:39.932Z,41.60
2023-04-15T04:50:08.691Z,41.78
2023-04-15T04:52:37.347Z,41.66
2023-04-15T04:55:05.145Z,41.92
2023-04-15T04:57:32.275Z,41.61
2023-04-15T04:59:59.405Z,41.83
2023-04-15T05:02:26.602Z,41.80
2023-04-15T05:04:53.826Z,42.23
2023-04-15T05:07:20.969Z,41.58
2023-04-15T05:09:49.507Z,42.08
2023-04-15T05:12:16.668Z,41.61
2023-04-15T05:14:44.103Z,41.81
2023-04-15T05:17:11.327Z,42.34
2023-04-15T05:19:38.406Z,41.84
2023-04-15T05:22:05.468Z,42.19
2023-04-15T05:24:32.610Z,41.69
2023-04-15T05:27:01.172Z,42.22
2023-04-15T05:29:28.572Z,41.71
2023-04-15T05:31:56.309Z,42.05
2023-04-15T05:34:23.431Z,42.02
2023-04-15T05:36:50.732Z,41.99
2023-04-15T05:39:17.877Z,41.68
2023-04-15T05:41:45.123Z,41.55
2023-04-15T05:44:13.701Z,42.17
2023-04-15T05:46:41.207Z,41.99
2023-04-15T05:49:08.665Z,41.94
2023-04-15T05:51:35.767Z,41.63
2023-04-15T05:54:02.872Z,42.04
2023-04-15T05:56:29.950Z,42.41
2023-04-15T05:58:57.065Z,42.17
2023-04-15T06:01:26.103Z,42.18
2023-04-15T06:03:53.374Z,42.35
2023-04-15T06:06:20.672Z,42.65
2023-04-15T06:08:47.776Z,42.62
2023-04-15T06:11:15.150Z,43.19
2023-04-15T06:13:42.256Z,42.67
2023-04-15T06:16:09.538Z,43.24
2023-04-15T06:18:38.100Z,42.80
2023-04-15T06:21:05.611Z,42.64
2023-04-15T06:23:35.010Z,42.90
2023-04-15T06:26:02.150Z,42.85
2023-04-15T06:28:29.472Z,42.69
2023-04-15T06:30:56.748Z,42.59
2023-04-15T06:33:23.853Z,42.48
2023-04-15T06:35:52.570Z,42.93
2023-04-15T06:38:19.810Z,42.76
2023-04-15T06:40:47.047Z,43.07
2023-04-15T06:43:14.248Z,42.93
2023-04-15T06:45:41.456Z,43.31
2023-04-15T06:48:08.561Z,42.72
2023-04-15T06:50:35.903Z,43.26
2023-04-15T06:53:04.491Z,43.31
2023-04-15T06:55:31.733Z,43.42
2023-04-15T06:57:58.830Z,43.44
2023-04-15T07:00:25.982Z,43.20
2023-04-15T07:02:53.213Z,42.81
2023-04-15T07:05:20.418Z,43.55
2023-04-15T07:07:47.689Z,43.30
2023-04-15T07:10:16.425Z,43.61
2023-04-15T07:12:43.776Z,43.81
2023-04-15T07:15:11.808Z,43.68
2023-04-15T07:17:39.104Z,43.59
2023-04-15T07:20:07.846Z,43.66
2023-04-15T07:22:35.287Z,43.44
2023-04-15T07:25:02.348Z,43.40
2023-04-15T07:27:31.144Z,43.43
2023-04-15T07:29:58.347Z,43.60
2023-04-15T07:32:26.821Z,44.07
2023-04-15T07:34:54.253Z,43.36
2023-04-15T07:37:21.545Z,43.40
2023-04-15T07:39:48.789Z,43.67
2023-04-15T07:42:16.094Z,43.31
2023-04-15T07:44:44.842Z,43.72
2023-04-15T07:47:11.947Z,43.75
2023-04-15T07:49:39.212Z,43.74
2023-04-15T07:52:06.351Z,43.66
2023-04-15T07:54:33.660Z,43.19
2023-04-15T07:57:00.829Z,43.46
2023-04-15T07:59:28.035Z,43.52
2023-04-15T08:01:57.055Z,42.90
2023-04-15T08:04:24.378Z,43.77
2023-04-15T08:06:51.872Z,43.51
2023-04-15T08:09:18.956Z,43.75
2023-04-15T08:11:48.893Z,43.25
2023-04-15T08:14:16.373Z,43.98
2023-04-15T08:16:43.590Z,43.70
2023-04-15T08:19:12.143Z,44.04
2023-04-15T08:21:39.550Z,43.87
2023-04-15T08:24:07.231Z,43.93
2023-04-15T08:26:34.450Z,43.42
2023-04-15T08:29:01.888Z,43.69
2023-04-15T08:31:30.204Z,43.36
2023-04-15T08:33:57.784Z,43.36
2023-04-15T08:36:26.930Z,42.14
2023-04-15T08:38:54.105Z,43.64
2023-04-15T08:41:23.168Z,43.70
2023-04-15T08:43:56.875Z,43.47
2023-04-15T08:46:24.279Z,43.70
2023-04-15T08:48:52.596Z,42.56
2023-04-15T08:51:21.833Z,42.65
2023-04-15T08:53:52.371Z,43.14
2023-04-15T08:56:23.896Z,42.42
2023-04-15T08:58:51.452Z,42.67
2023-04-15T09:01:19.402Z,41.74
2023-04-15T09:03:49.693Z,43.04
2023-04-15T09:06:17.775Z,42.14
2023-04-15T09:08:45.238Z,43.27
2023-04-15T09:11:13.980Z,42.42
2023-04-15T09:13:41.131Z,42.06
2023-04-15T09:16:08.648Z,42.70
2023-04-15T09:18:38.657Z,42.88
2023-04-15T09:21:07.571Z,42.65
2023-04-15T09:23:35.649Z,43.02
2023-04-15T09:26:03.403Z,43.10
2023-04-15T09:28:32.910Z,42.48
2023-04-15T09:31:02.056Z,42.99
2023-04-15T09:33:30.489Z,42.02
2023-04-15T09:35:59.552Z,42.84
2023-04-15T09:38:27.191Z,42.00
2023-04-15T09:40:54.886Z,42.91
2023-04-15T09:43:22.051Z,43.01
2023-04-15T09:45:52.731Z,43.19
2023-04-15T09:48:21.997Z,42.69
2023-04-15T09:50:50.303Z,43.35
2023-04-15T09:53:19.791Z,43.36
2023-04-15T09:55:50.956Z,42.55
2023-04-15T09:58:18.931Z,43.11
2023-04-15T10:00:48.310Z,43.09
2023-04-15T10:03:20.860Z,42.47
2023-04-15T10:05:49.934Z,42.91
2023-04-15T10:08:19.996Z,42.69
2023-04-15T10:10:48.572Z,42.69
2023-04-15T10:13:18.826Z,41.61
2023-04-15T10:15:51.090Z,42.30
2023-04-15T10:18:21.553Z,41.73
2023-04-15T10:20:50.096Z,40.69
2023-04-15T10:23:18.731Z,42.63
2023-04-15T10:25:47.001Z,42.82
2023-04-15T10:28:16.472Z,43.02
2023-04-15T10:30:44.382Z,44.22
2023-04-15T10:33:12.332Z,44.36
2023-04-15T10:35:42.814Z,45.53
2023-04-15T10:38:35.034Z,45.83
2023-04-15T10:41:21.418Z,45.18
2023-04-15T10:43:52.268Z,45.44
2023-04-15T10:46:22.440Z,47.46
2023-04-15T10:48:51.275Z,46.10
2023-04-15T10:51:30.128Z,45.86
2023-04-15T10:53:59.072Z,47.09
2023-04-15T10:56:26.252Z,47.27
2023-04-15T10:58:53.436Z,47.26
2023-04-15T11:01:21.316Z,47.23
2023-04-15T11:03:49.130Z,46.61
2023-04-15T11:06:16.317Z,46.70
2023-04-15T11:08:59.748Z,46.56
2023-04-15T11:12:05.473Z,46.55
2023-04-15T11:14:34.409Z,47.35
2023-04-15T11:17:01.567Z,49.00
2023-04-15T11:19:37.050Z,47.25
2023-04-15T11:22:08.294Z,46.86
2023-04-15T11:24:37.186Z,46.12
2023-04-15T11:27:04.352Z,46.34
2023-04-15T11:29:32.732Z,46.28
2023-04-15T11:32:05.936Z,46.71
2023-04-15T11:34:35.593Z,47.68
2023-04-15T11:37:05.334Z,46.02
2023-04-15T11:39:32.610Z,46.28
2023-04-15T11:42:01.292Z,45.71
2023-04-15T11:44:28.472Z,47.29
2023-04-15T11:46:55.839Z,45.26
2023-04-15T11:49:30.111Z,45.69
2023-04-15T11:51:57.313Z,46.66
2023-04-15T11:54:24.513Z,47.50
2023-04-15T11:56:52.230Z,46.99
2023-04-15T11:59:21.051Z,46.37
2023-04-15T12:01:48.207Z,46.37
2023-04-15T12:04:17.769Z,45.57
2023-04-15T12:06:45.250Z,46.48
2023-04-15T12:09:13.107Z,45.20
2023-04-15T12:11:42.965Z,45.79
2023-04-15T12:14:21.848Z,45.65
2023-04-15T12:16:52.004Z,45.98
2023-04-15T12:19:25.668Z,46.64
2023-04-15T12:22:00.080Z,45.93
2023-04-15T12:24:28.498Z,45.71
2023-04-15T12:26:57.714Z,45.09
2023-04-15T12:29:29.327Z,45.22
2023-04-15T12:31:58.432Z,44.69
2023-04-15T12:34:30.041Z,45.05
2023-04-15T12:36:58.805Z,44.61
2023-04-15T12:39:29.286Z,45.20
2023-04-15T12:41:58.099Z,45.62
2023-04-15T12:44:26.854Z,45.82
2023-04-15T12:46:54.470Z,44.89
2023-04-15T12:49:22.820Z,45.59
2023-04-15T12:51:51.385Z,45.17
2023-04-15T12:54:19.251Z,46.27
2023-04-15T12:56:47.353Z,45.66
2023-04-15T12:59:14.851Z,45.68
2023-04-15T13:01:43.684Z,45.39
2023-04-15T13:04:11.435Z,45.75
2023-04-15T13:06:38.720Z,44.46
2023-04-15T13:09:06.226Z,45.60
2023-04-15T13:11:34.720Z,45.90
2023-04-15T13:14:03.974Z,44.73
2023-04-15T13:16:31.932Z,44.85
2023-04-15T13:19:01.741Z,46.21
2023-04-15T13:21:29.149Z,45.64
2023-04-15T13:23:56.379Z,45.11
2023-04-15T13:26:23.552Z,45.12
2023-04-15T13:28:50.790Z,45.59
2023-04-15T13:31:18.004Z,46.34
2023-04-15T13:33:45.182Z,44.44
2023-04-15T13:36:14.169Z,45.05
2023-04-15T13:38:41.337Z,44.62
2023-04-15T13:41:08.417Z,43.65
2023-04-15T13:43:35.518Z,45.50
2023-04-15T13:46:02.932Z,45.87
2023-04-15T13:48:30.184Z,46.82
2023-04-15T13:50:57.371Z,45.62
2023-04-15T13:53:37.997Z,46.47
2023-04-15T13:56:07.076Z,46.84
2023-04-15T13:58:34.384Z,46.75
2023-04-15T14:01:03.145Z,46.14
2023-04-15T14:03:32.384Z,45.64
2023-04-15T14:05:59.958Z,44.89
2023-04-15T14:08:28.623Z,45.93
2023-04-15T14:10:55.771Z,46.62
2023-04-15T14:13:22.872Z,46.79
2023-04-15T14:15:50.082Z,45.77
2023-04-15T14:18:17.290Z,45.46
2023-04-15T14:20:44.487Z,45.52
2023-04-15T14:23:11.555Z,44.77
2023-04-15T14:25:40.230Z,46.12
2023-04-15T14:28:07.447Z,43.93
2023-04-15T14:30:34.655Z,44.17
2023-04-15T14:33:02.130Z,43.38
2023-04-15T14:35:29.553Z,44.33
2023-04-15T14:37:57.014Z,44.28
2023-04-15T14:40:24.328Z,45.06
2023-04-15T14:42:52.937Z,44.97
2023-04-15T14:45:20.344Z,45.85
2023-04-15T14:47:47.774Z,47.69
2023-04-15T14:50:14.948Z,47.20
2023-04-15T14:52:42.211Z,46.50
2023-04-15T14:55:11.502Z,44.66
2023-04-15T14:57:39.412Z,43.74
2023-04-15T15:00:10.231Z,43.85
2023-04-15T15:02:40.345Z,43.99
2023-04-15T15:05:09.822Z,44.40
2023-04-15T15:07:37.921Z,43.22
2023-04-15T15:10:06.469Z,43.27
2023-04-15T15:12:34.254Z,43.31
2023-04-15T15:15:04.998Z,43.29
2023-04-15T15:17:38.116Z,43.37
2023-04-15T15:20:06.329Z,45.12
2023-04-15T15:22:33.389Z,43.95
2023-04-15T15:25:00.716Z,43.81
2023-04-15T15:27:27.889Z,44.07
2023-04-15T15:29:56.449Z,45.72
2023-04-15T15:32:23.640Z,44.99
2023-04-15T15:34:52.412Z,45.95
2023-04-15T15:37:19.592Z,46.04
2023-04-15T15:39:46.812Z,45.83
2023-04-15T15:42:14.000Z,45.39
2023-04-15T15:44:41.089Z,45.23
2023-04-15T15:47:08.755Z,44.98
2023-04-15T15:49:36.055Z,45.22
2023-04-15T15:52:05.079Z,45.14
2023-04-15T15:54:32.292Z,49.75
2023-04-15T15:56:59.483Z,45.03
2023-04-15T15:59:26.571Z,44.62
2023-04-15T16:01:53.896Z,44.59
2023-04-15T16:04:21.817Z,45.17
2023-04-15T16:06:49.540Z,45.69
2023-04-15T16:09:18.195Z,45.71
2023-04-15T16:11:45.917Z,46.67
2023-04-15T16:14:13.112Z,46.67
2023-04-15T16:16:40.328Z,45.85
2023-04-15T16:19:07.610Z,46.72
2023-04-15T16:21:34.916Z,47.03
2023-04-15T16:24:02.602Z,47.00
2023-04-15T16:26:31.416Z,46.51
2023-04-15T16:28:58.576Z,46.76
2023-04-15T16:31:25.801Z,46.85
2023-04-15T16:33:52.974Z,45.68
2023-04-15T16:36:20.334Z,47.11
2023-04-15T16:38:47.450Z,47.02
2023-04-15T16:41:15.890Z,47.52
2023-04-15T16:43:47.022Z,47.29
2023-04-15T16:46:17.613Z,47.88
2023-04-15T16:48:45.111Z,47.53
2023-04-15T16:51:12.351Z,47.83
2023-04-15T16:53:39.551Z,47.96
2023-04-15T16:56:06.966Z,48.00
2023-04-15T16:58:34.224Z,48.00
2023-04-15T17:01:04.619Z,47.45
2023-04-15T17:03:38.286Z,48.29
2023-04-15T17:06:06.748Z,48.11
2023-04-15T17:08:34.094Z,47.77
2023-04-15T17:11:01.897Z,48.01
2023-04-15T17:13:29.134Z,49.89
2023-04-15T17:15:56.294Z,48.26
2023-04-15T17:18:25.644Z,47.96
2023-04-15T17:20:52.784Z,47.20
2023-04-15T17:23:20.048Z,47.14
2023-04-15T17:25:47.187Z,46.65
2023-04-15T17:28:14.613Z,46.89
2023-04-15T17:30:41.819Z,46.68
2023-04-15T17:33:50.520Z,45.49
2023-04-15T17:35:59.383Z,45.27
2023-04-15T17:38:26.749Z,46.43
2023-04-15T17:40:53.857Z,46.32
2023-04-15T17:43:21.311Z,46.05
2023-04-15T17:45:48.498Z,46.08
2023-04-15T17:48:15.687Z,46.72
2023-04-15T17:50:42.929Z,46.69
2023-04-15T17:53:11.649Z,47.06
2023-04-15T17:55:38.782Z,47.43
2023-04-15T17:58:06.228Z,47.61
2023-04-15T18:00:33.368Z,48.41
2023-04-15T18:03:00.660Z,47.64
2023-04-15T18:05:28.169Z,47.86
2023-04-15T18:07:55.510Z,47.63
2023-04-15T18:10:24.274Z,47.39
2023-04-15T18:12:51.463Z,47.46
2023-04-15T18:15:19.034Z,47.46
2023-04-15T18:17:46.458Z,47.98
2023-04-15T18:20:13.886Z,48.48
2023-04-15T18:22:41.066Z,48.84
2023-04-15T18:25:09.251Z,48.39
2023-04-15T18:27:38.511Z,48.11
2023-04-15T18:30:07.136Z,47.73
2023-04-15T18:32:34.481Z,48.77
2023-04-15T18:35:02.129Z,49.04
2023-04-15T18:37:29.528Z,49.12
2023-04-15T18:39:56.878Z,48.90
2023-04-15T18:42:25.296Z,48.97
2023-04-15T18:44:54.188Z,49.70
2023-04-15T18:47:21.572Z,49.39
2023-04-15T18:49:48.809Z,56.01
2023-04-15T18:52:16.098Z,49.79
2023-04-15T18:54:43.253Z,43.64
2023-04-15T18:57:10.593Z,40.85
2023-04-15T18:59:37.772Z,42.16
2023-04-15T19:02:06.565Z,43.52
2023-04-15T19:04:34.240Z,44.18
2023-04-15T19:07:02.169Z,44.81
2023-04-15T19:09:29.751Z,45.38
2023-04-15T19:11:57.084Z,45.79
2023-04-15T19:14:24.306Z,46.14
2023-04-15T19:16:51.543Z,46.48
2023-04-15T19:19:26.391Z,46.34
2023-04-15T19:21:59.021Z,46.48
2023-04-15T19:24:31.078Z,46.78
2023-04-15T19:27:05.638Z,46.91
2023-04-15T19:29:33.789Z,47.66
2023-04-15T19:32:01.153Z,47.97
2023-04-15T19:34:30.729Z,48.61
2023-04-15T19:36:58.132Z,48.21
2023-04-15T19:39:25.432Z,48.05
2023-04-15T19:41:54.128Z,47.81
2023-04-15T19:44:22.252Z,47.81
2023-04-15T19:46:49.469Z,48.34
2023-04-15T19:49:16.834Z,48.19
2023-04-15T19:51:45.711Z,48.65
2023-04-15T19:54:12.971Z,48.94
2023-04-15T19:56:40.174Z,48.97
2023-04-15T19:59:07.685Z,48.78
2023-04-15T20:01:35.233Z,49.06
2023-04-15T20:04:02.528Z,49.02
2023-04-15T20:06:30.187Z,47.99
2023-04-15T20:08:59.032Z,48.73
2023-04-15T20:11:26.495Z,48.95
2023-04-15T20:14:13.531Z,48.61
2023-04-15T20:16:40.718Z,48.20
2023-04-15T20:19:08.501Z,48.27
2023-04-15T20:21:40.350Z,48.36
2023-04-15T20:24:09.869Z,48.92
2023-04-15T20:26:37.173Z,48.98
2023-04-15T20:29:04.840Z,49.00
2023-04-15T20:31:32.377Z,49.53
2023-04-15T20:34:00.755Z,49.46
2023-04-15T20:36:28.322Z,49.54
2023-04-15T20:38:55.588Z,49.39
2023-04-15T20:41:24.437Z,48.69
2023-04-15T20:43:51.695Z,48.93
2023-04-15T20:46:21.432Z,48.80
2023-04-15T20:48:49.389Z,49.09
2023-04-15T20:51:16.509Z,49.07
2023-04-15T20:53:43.874Z,48.95
2023-04-15T20:56:11.550Z,48.95
2023-04-15T20:58:40.210Z,49.01
2023-04-15T21:01:07.313Z,49.64
2023-04-15T21:03:34.535Z,49.68
2023-04-15T21:06:02.092Z,49.74
2023-04-15T21:08:29.195Z,49.69
2023-04-15T21:10:56.533Z,49.87
2023-04-15T21:13:24.030Z,50.08
2023-04-15T21:15:52.808Z,50.01
2023-04-15T21:18:20.496Z,50.56
2023-04-15T21:20:55.555Z,50.90
2023-04-15T21:23:22.772Z,50.48
2023-04-15T21:25:49.934Z,50.47
2023-04-15T21:28:17.524Z,50.71
2023-04-15T21:30:44.853Z,50.63
2023-04-15T21:33:13.572Z,50.36
2023-04-15T21:35:40.851Z,49.78
2023-04-15T21:38:08.488Z,50.73
2023-04-15T21:40:35.639Z,50.04
2023-04-15T21:43:02.891Z,50.07
2023-04-15T21:45:30.767Z,50.19
2023-04-15T21:48:07.534Z,49.87
2023-04-15T21:50:37.828Z,50.01
2023-04-15T21:53:08.080Z,49.41
2023-04-15T21:55:35.310Z,49.47
2023-04-15T21:58:02.672Z,49.84
2023-04-15T22:00:30.080Z,50.40
2023-04-15T22:02:57.784Z,50.04
2023-04-15T22:05:26.010Z,50.35
2023-04-15T22:07:54.647Z,50.23
2023-04-15T22:10:21.993Z,50.28
2023-04-15T22:12:49.261Z,50.41
2023-04-15T22:15:16.614Z,50.36
2023-04-15T22:17:44.165Z,50.12
2023-04-15T22:20:11.626Z,49.60
2023-04-15T22:22:43.871Z,49.50
2023-04-15T22:25:14.552Z,49.71
2023-04-15T22:27:41.703Z,49.58
2023-04-15T22:30:10.094Z,50.08
2023-04-15T22:32:37.375Z,50.55
2023-04-15T22:35:05.281Z,50.16
2023-04-15T22:37:32.428Z,49.73
2023-04-15T22:39:59.628Z,49.63
2023-04-15T22:42:28.427Z,50.07
2023-04-15T22:44:55.527Z,49.97
2023-04-15T22:47:22.849Z,49.69
2023-04-15T22:49:50.387Z,49.55
2023-04-15T22:52:29.382Z,50.01
2023-04-15T22:54:58.028Z,50.11
2023-04-15T22:57:25.269Z,50.04
2023-04-15T22:59:53.948Z,49.71
2023-04-15T23:02:21.215Z,50.00
2023-04-15T23:04:48.835Z,49.61
2023-04-15T23:07:16.026Z,49.77
2023-04-15T23:09:43.346Z,49.34
2023-04-15T23:12:10.629Z,49.79
2023-04-15T23:14:37.814Z,49.91
2023-04-15T23:17:06.747Z,49.68
2023-04-15T23:19:33.888Z,50.01
2023-04-15T23:22:01.138Z,50.05
2023-04-15T23:24:28.329Z,49.72
2023-04-15T23:26:55.407Z,49.73
2023-04-15T23:29:22.486Z,49.83
2023-04-15T23:31:49.963Z,49.49
2023-04-15T23:34:18.723Z,49.57
2023-04-15T23:36:45.906Z,49.45
2023-04-15T23:39:13.248Z,49.77
2023-04-15T23:41:40.366Z,49.71
2023-04-15T23:44:07.551Z,50.08
2023-04-15T23:46:34.696Z,50.16
2023-04-15T23:49:01.909Z,50.18
2023-04-15T23:51:30.466Z,49.74
2023-04-15T23:53:57.587Z,50.78
2023-04-15T23:56:24.750Z,49.86
2023-04-15T23:58:52.027Z,50.45
